LYBE/BEG METAR and TAF weather

Enter ICAO airport designator
Station Type Date Time Source
LYBE METAR 2019/11/15 05:30 UTC NOAA

LYBE 150530Z 14004KT 110V170 5000 BR OVC007 11/10 Q1013 NOSIG


Station Type Date Time Source
LYBE Decoded METAR 2019/11/15 05:30 UTC NOAA

Beograd / Surcin, Serbia and Montenegro (LYBE) 44-49N 020-17E 99M
Nov 15, 2019 - 12:30 AM EST / 2019.11.15 0530 UTC
Wind: from the SE (140 degrees) at 5 MPH (4 KT) (direction variable):0
Visibility: 3 mile(s):0
Sky conditions: overcast
Weather: mist
Temperature: 51 F (11 C)
Dew Point: 50 F (10 C)
Relative Humidity: 93%
Pressure (altimeter): 29.91 in. Hg (1013 hPa)
ob: LYBE 150530Z 14004KT 110V170 5000 BR OVC007 11/10 Q1013 NOSIG
cycle: 5

Station Type Date Time Source
LYBE TAF 2019/11/15 06:21 UTC NOAA

TAF TAF LYBE 150500Z 1506/1606 13004KT 5000 BR BKN006 TX18/1512Z TN10/1605Z PROB30
TEMPO 1506/1507 1200 BKN003
BECMG 1507/1509 13010KT CAVOK
BECMG 1602/1604 14020KT

Example: see airport list